sensor_id;sensor_type;location;lat;lon;timestamp;pressure;altitude;pressure_sealevel;temperature
64960;BMP180;51487;52.266;10.542;2023-05-07T00:00:00;101067.00;;;9.50
64960;BMP180;51487;52.266;10.542;2023-05-07T00:02:26;101066.00;;;9.50
64960;BMP180;51487;52.266;10.542;2023-05-07T00:04:52;101086.00;;;9.60
64960;BMP180;51487;52.266;10.542;2023-05-07T00:07:18;101077.00;;;9.60
64960;BMP180;51487;52.266;10.542;2023-05-07T00:09:43;101079.00;;;9.70
64960;BMP180;51487;52.266;10.542;2023-05-07T00:12:09;101075.00;;;9.60
64960;BMP180;51487;52.266;10.542;2023-05-07T00:14:35;101076.00;;;9.60
64960;BMP180;51487;52.266;10.542;2023-05-07T00:17:01;101072.00;;;9.70
64960;BMP180;51487;52.266;10.542;2023-05-07T00:19:26;101081.00;;;9.70
64960;BMP180;51487;52.266;10.542;2023-05-07T00:21:52;101085.00;;;9.50
64960;BMP180;51487;52.266;10.542;2023-05-07T00:24:21;101089.00;;;9.60
64960;BMP180;51487;52.266;10.542;2023-05-07T00:26:47;101085.00;;;9.60
64960;BMP180;51487;52.266;10.542;2023-05-07T00:29:12;101091.00;;;9.60
64960;BMP180;51487;52.266;10.542;2023-05-07T00:31:38;101095.00;;;9.70
64960;BMP180;51487;52.266;10.542;2023-05-07T00:34:03;101082.00;;;9.70
64960;BMP180;51487;52.266;10.542;2023-05-07T00:36:29;101084.00;;;9.70
64960;BMP180;51487;52.266;10.542;2023-05-07T00:38:56;101082.00;;;9.70
64960;BMP180;51487;52.266;10.542;2023-05-07T00:41:25;101081.00;;;9.70
64960;BMP180;51487;52.266;10.542;2023-05-07T00:43:51;101072.00;;;9.80
64960;BMP180;51487;52.266;10.542;2023-05-07T00:46:17;101070.00;;;9.70
64960;BMP180;51487;52.266;10.542;2023-05-07T00:48:44;101077.00;;;9.70
64960;BMP180;51487;52.266;10.542;2023-05-07T00:51:10;101072.00;;;9.70
64960;BMP180;51487;52.266;10.542;2023-05-07T00:53:36;101072.00;;;9.80
64960;BMP180;51487;52.266;10.542;2023-05-07T00:56:03;101066.00;;;9.80
64960;BMP180;51487;52.266;10.542;2023-05-07T00:58:29;101063.00;;;9.90
64960;BMP180;51487;52.266;10.542;2023-05-07T01:00:55;101068.00;;;9.80
64960;BMP180;51487;52.266;10.542;2023-05-07T01:03:21;101065.00;;;9.80
64960;BMP180;51487;52.266;10.542;2023-05-07T01:05:48;101066.00;;;9.80
64960;BMP180;51487;52.266;10.542;2023-05-07T01:08:15;101068.00;;;9.80
64960;BMP180;51487;52.266;10.542;2023-05-07T01:10:41;101062.00;;;9.70
64960;BMP180;51487;52.266;10.542;2023-05-07T01:13:12;101074.00;;;9.80
64960;BMP180;51487;52.266;10.542;2023-05-07T01:15:38;101075.00;;;9.80
64960;BMP180;51487;52.266;10.542;2023-05-07T01:18:06;101085.00;;;9.70
64960;BMP180;51487;52.266;10.542;2023-05-07T01:20:32;101078.00;;;9.60
64960;BMP180;51487;52.266;10.542;2023-05-07T01:23:00;101076.00;;;9.60
64960;BMP180;51487;52.266;10.542;2023-05-07T01:25:26;101084.00;;;9.60
64960;BMP180;51487;52.266;10.542;2023-05-07T01:27:52;101074.00;;;9.70
64960;BMP180;51487;52.266;10.542;2023-05-07T01:30:19;101069.00;;;9.60
64960;BMP180;51487;52.266;10.542;2023-05-07T01:32:56;101064.00;;;9.60
64960;BMP180;51487;52.266;10.542;2023-05-07T01:35:27;101075.00;;;9.50
64960;BMP180;51487;52.266;10.542;2023-05-07T01:37:56;101075.00;;;9.60
64960;BMP180;51487;52.266;10.542;2023-05-07T01:40:23;101061.00;;;9.50
64960;BMP180;51487;52.266;10.542;2023-05-07T01:42:50;101070.00;;;9.50
64960;BMP180;51487;52.266;10.542;2023-05-07T01:45:16;101078.00;;;9.40
64960;BMP180;51487;52.266;10.542;2023-05-07T01:47:42;101069.00;;;9.40
64960;BMP180;51487;52.266;10.542;2023-05-07T01:50:09;101084.00;;;9.40
64960;BMP180;51487;52.266;10.542;2023-05-07T01:52:36;101074.00;;;9.40
64960;BMP180;51487;52.266;10.542;2023-05-07T01:55:03;101081.00;;;9.40
64960;BMP180;51487;52.266;10.542;2023-05-07T01:57:30;101078.00;;;9.20
64960;BMP180;51487;52.266;10.542;2023-05-07T01:59:55;101084.00;;;9.40
64960;BMP180;51487;52.266;10.542;2023-05-07T02:02:21;101085.00;;;9.30
64960;BMP180;51487;52.266;10.542;2023-05-07T02:04:46;101088.00;;;9.40
64960;BMP180;51487;52.266;10.542;2023-05-07T02:07:12;101084.00;;;9.30
64960;BMP180;51487;52.266;10.542;2023-05-07T02:09:37;101082.00;;;9.30
64960;BMP180;51487;52.266;10.542;2023-05-07T02:12:03;101092.00;;;9.30
64960;BMP180;51487;52.266;10.542;2023-05-07T02:14:29;101096.00;;;9.30
64960;BMP180;51487;52.266;10.542;2023-05-07T02:16:55;101093.00;;;9.30
64960;BMP180;51487;52.266;10.542;2023-05-07T02:19:20;101092.00;;;9.20
64960;BMP180;51487;52.266;10.542;2023-05-07T02:21:46;101091.00;;;9.40
64960;BMP180;51487;52.266;10.542;2023-05-07T02:24:13;101085.00;;;9.30
64960;BMP180;51487;52.266;10.542;2023-05-07T02:26:40;101084.00;;;9.40
64960;BMP180;51487;52.266;10.542;2023-05-07T02:29:06;101080.00;;;9.40
64960;BMP180;51487;52.266;10.542;2023-05-07T02:31:32;101090.00;;;9.40
64960;BMP180;51487;52.266;10.542;2023-05-07T02:33:59;101086.00;;;9.30
64960;BMP180;51487;52.266;10.542;2023-05-07T02:36:25;101093.00;;;9.20
64960;BMP180;51487;52.266;10.542;2023-05-07T02:38:51;101095.00;;;9.20
64960;BMP180;51487;52.266;10.542;2023-05-07T02:41:17;101089.00;;;9.20
64960;BMP180;51487;52.266;10.542;2023-05-07T02:43:43;101090.00;;;9.20
64960;BMP180;51487;52.266;10.542;2023-05-07T02:46:09;101102.00;;;9.30
64960;BMP180;51487;52.266;10.542;2023-05-07T02:48:35;101102.00;;;9.30
64960;BMP180;51487;52.266;10.542;2023-05-07T02:51:02;101104.00;;;9.30
64960;BMP180;51487;52.266;10.542;2023-05-07T02:53:28;101107.00;;;9.30
64960;BMP180;51487;52.266;10.542;2023-05-07T02:55:58;101100.00;;;9.30
64960;BMP180;51487;52.266;10.542;2023-05-07T02:58:25;101106.00;;;9.50
64960;BMP180;51487;52.266;10.542;2023-05-07T03:00:52;101110.00;;;9.30
64960;BMP180;51487;52.266;10.542;2023-05-07T03:03:19;101106.00;;;9.30
64960;BMP180;51487;52.266;10.542;2023-05-07T03:05:45;101113.00;;;9.30
64960;BMP180;51487;52.266;10.542;2023-05-07T03:08:11;101100.00;;;9.20
64960;BMP180;51487;52.266;10.542;2023-05-07T03:10:37;101108.00;;;9.10
64960;BMP180;51487;52.266;10.542;2023-05-07T03:13:03;101106.00;;;9.00
64960;BMP180;51487;52.266;10.542;2023-05-07T03:15:30;101107.00;;;9.10
64960;BMP180;51487;52.266;10.542;2023-05-07T03:17:55;101100.00;;;9.10
64960;BMP180;51487;52.266;10.542;2023-05-07T03:20:21;101090.00;;;9.10
64960;BMP180;51487;52.266;10.542;2023-05-07T03:22:46;101081.00;;;9.00
64960;BMP180;51487;52.266;10.542;2023-05-07T03:25:12;101080.00;;;9.00
64960;BMP180;51487;52.266;10.542;2023-05-07T03:27:39;101080.00;;;8.90
64960;BMP180;51487;52.266;10.542;2023-05-07T03:30:05;101080.00;;;9.00
64960;BMP180;51487;52.266;10.542;2023-05-07T03:32:32;101078.00;;;9.10
64960;BMP180;51487;52.266;10.542;2023-05-07T03:34:58;101083.00;;;9.00
64960;BMP180;51487;52.266;10.542;2023-05-07T03:37:24;101077.00;;;9.00
64960;BMP180;51487;52.266;10.542;2023-05-07T03:39:49;101080.00;;;9.00
64960;BMP180;51487;52.266;10.542;2023-05-07T03:42:15;101081.00;;;9.00
64960;BMP180;51487;52.266;10.542;2023-05-07T03:44:41;101080.00;;;9.10
64960;BMP180;51487;52.266;10.542;2023-05-07T03:47:06;101084.00;;;9.20
64960;BMP180;51487;52.266;10.542;2023-05-07T03:49:32;101084.00;;;9.20
64960;BMP180;51487;52.266;10.542;2023-05-07T03:51:57;101090.00;;;9.10
64960;BMP180;51487;52.266;10.542;2023-05-07T03:54:23;101089.00;;;9.20
64960;BMP180;51487;52.266;10.542;2023-05-07T03:56:48;101095.00;;;9.20
64960;BMP180;51487;52.266;10.542;2023-05-07T03:59:14;101093.00;;;9.20
64960;BMP180;51487;52.266;10.542;2023-05-07T04:01:40;101096.00;;;9.10
64960;BMP180;51487;52.266;10.542;2023-05-07T04:04:05;101101.00;;;9.10
64960;BMP180;51487;52.266;10.542;2023-05-07T04:06:31;101095.00;;;9.10
64960;BMP180;51487;52.266;10.542;2023-05-07T04:08:56;101093.00;;;9.10
64960;BMP180;51487;52.266;10.542;2023-05-07T04:11:22;101083.00;;;9.30
64960;BMP180;51487;52.266;10.542;2023-05-07T04:13:48;101089.00;;;9.20
64960;BMP180;51487;52.266;10.542;2023-05-07T04:16:14;101096.00;;;9.10
64960;BMP180;51487;52.266;10.542;2023-05-07T04:18:39;101102.00;;;9.10
64960;BMP180;51487;52.266;10.542;2023-05-07T04:21:05;101106.00;;;9.20
64960;BMP180;51487;52.266;10.542;2023-05-07T04:23:31;101105.00;;;9.10
64960;BMP180;51487;52.266;10.542;2023-05-07T04:25:56;101107.00;;;9.10
64960;BMP180;51487;52.266;10.542;2023-05-07T04:28:22;101102.00;;;9.30
64960;BMP180;51487;52.266;10.542;2023-05-07T04:30:48;101110.00;;;9.20
64960;BMP180;51487;52.266;10.542;2023-05-07T04:33:14;101115.00;;;9.30
64960;BMP180;51487;52.266;10.542;2023-05-07T04:35:43;101105.00;;;9.40
64960;BMP180;51487;52.266;10.542;2023-05-07T04:38:08;101105.00;;;9.30
64960;BMP180;51487;52.266;10.542;2023-05-07T04:40:35;101115.00;;;9.30
64960;BMP180;51487;52.266;10.542;2023-05-07T04:43:01;101111.00;;;9.40
64960;BMP180;51487;52.266;10.542;2023-05-07T04:45:27;101113.00;;;9.40
64960;BMP180;51487;52.266;10.542;2023-05-07T04:47:52;101125.00;;;9.30
64960;BMP180;51487;52.266;10.542;2023-05-07T04:50:18;101123.00;;;9.30
64960;BMP180;51487;52.266;10.542;2023-05-07T04:52:45;101128.00;;;9.20
64960;BMP180;51487;52.266;10.542;2023-05-07T04:55:10;101126.00;;;9.40
64960;BMP180;51487;52.266;10.542;2023-05-07T04:57:36;101130.00;;;9.40
64960;BMP180;51487;52.266;10.542;2023-05-07T05:00:05;101143.00;;;9.40
64960;BMP180;51487;52.266;10.542;2023-05-07T05:02:33;101142.00;;;9.50
64960;BMP180;51487;52.266;10.542;2023-05-07T05:04:59;101142.00;;;9.60
64960;BMP180;51487;52.266;10.542;2023-05-07T05:07:25;101149.00;;;9.60
64960;BMP180;51487;52.266;10.542;2023-05-07T05:09:50;101148.00;;;9.60
64960;BMP180;51487;52.266;10.542;2023-05-07T05:12:16;101163.00;;;9.90
64960;BMP180;51487;52.266;10.542;2023-05-07T05:14:41;101154.00;;;9.90
64960;BMP180;51487;52.266;10.542;2023-05-07T05:17:06;101153.00;;;9.90
64960;BMP180;51487;52.266;10.542;2023-05-07T05:19:32;101152.00;;;9.80
64960;BMP180;51487;52.266;10.542;2023-05-07T05:21:58;101150.00;;;9.80
64960;BMP180;51487;52.266;10.542;2023-05-07T05:24:26;101154.00;;;9.60
64960;BMP180;51487;52.266;10.542;2023-05-07T05:26:53;101158.00;;;9.70
64960;BMP180;51487;52.266;10.542;2023-05-07T05:29:19;101155.00;;;9.70
64960;BMP180;51487;52.266;10.542;2023-05-07T05:31:45;101153.00;;;9.80
64960;BMP180;51487;52.266;10.542;2023-05-07T05:34:10;101149.00;;;9.70
64960;BMP180;51487;52.266;10.542;2023-05-07T05:36:36;101153.00;;;9.60
64960;BMP180;51487;52.266;10.542;2023-05-07T05:39:01;101149.00;;;9.70
64960;BMP180;51487;52.266;10.542;2023-05-07T05:41:27;101164.00;;;9.70
64960;BMP180;51487;52.266;10.542;2023-05-07T05:43:53;101161.00;;;9.60
64960;BMP180;51487;52.266;10.542;2023-05-07T05:46:18;101165.00;;;9.60
64960;BMP180;51487;52.266;10.542;2023-05-07T05:48:44;101162.00;;;9.40
64960;BMP180;51487;52.266;10.542;2023-05-07T05:51:09;101169.00;;;9.40
64960;BMP180;51487;52.266;10.542;2023-05-07T05:53:35;101175.00;;;9.60
64960;BMP180;51487;52.266;10.542;2023-05-07T05:56:01;101168.00;;;9.60
64960;BMP180;51487;52.266;10.542;2023-05-07T05:58:26;101170.00;;;9.60
64960;BMP180;51487;52.266;10.542;2023-05-07T06:00:52;101167.00;;;9.60
64960;BMP180;51487;52.266;10.542;2023-05-07T06:03:18;101172.00;;;9.60
64960;BMP180;51487;52.266;10.542;2023-05-07T06:05:44;101170.00;;;9.70
64960;BMP180;51487;52.266;10.542;2023-05-07T06:08:09;101163.00;;;9.80
64960;BMP180;51487;52.266;10.542;2023-05-07T06:10:36;101170.00;;;9.80
64960;BMP180;51487;52.266;10.542;2023-05-07T06:13:02;101165.00;;;9.70
64960;BMP180;51487;52.266;10.542;2023-05-07T06:15:28;101171.00;;;9.70
64960;BMP180;51487;52.266;10.542;2023-05-07T06:17:53;101167.00;;;9.90
64960;BMP180;51487;52.266;10.542;2023-05-07T06:20:21;101168.00;;;9.90
64960;BMP180;51487;52.266;10.542;2023-05-07T06:22:46;101181.00;;;9.90
64960;BMP180;51487;52.266;10.542;2023-05-07T06:25:12;101177.00;;;9.80
64960;BMP180;51487;52.266;10.542;2023-05-07T06:27:37;101182.00;;;10.00
64960;BMP180;51487;52.266;10.542;2023-05-07T06:30:05;101174.00;;;10.00
64960;BMP180;51487;52.266;10.542;2023-05-07T06:32:31;101178.00;;;10.10
64960;BMP180;51487;52.266;10.542;2023-05-07T06:34:57;101166.00;;;10.20
64960;BMP180;51487;52.266;10.542;2023-05-07T06:37:22;101165.00;;;10.20
64960;BMP180;51487;52.266;10.542;2023-05-07T06:39:48;101175.00;;;10.00
64960;BMP180;51487;52.266;10.542;2023-05-07T06:42:13;101166.00;;;10.10
64960;BMP180;51487;52.266;10.542;2023-05-07T06:44:39;101171.00;;;10.30
64960;BMP180;51487;52.266;10.542;2023-05-07T06:47:05;101172.00;;;10.30
64960;BMP180;51487;52.266;10.542;2023-05-07T06:49:30;101175.00;;;10.40
64960;BMP180;51487;52.266;10.542;2023-05-07T06:51:56;101176.00;;;10.40
64960;BMP180;51487;52.266;10.542;2023-05-07T06:54:23;101167.00;;;10.70
64960;BMP180;51487;52.266;10.542;2023-05-07T06:56:48;101177.00;;;10.80
64960;BMP180;51487;52.266;10.542;2023-05-07T06:59:14;101175.00;;;10.70
64960;BMP180;51487;52.266;10.542;2023-05-07T07:01:39;101172.00;;;10.70
64960;BMP180;51487;52.266;10.542;2023-05-07T07:04:05;101177.00;;;10.70
64960;BMP180;51487;52.266;10.542;2023-05-07T07:06:31;101182.00;;;10.70
64960;BMP180;51487;52.266;10.542;2023-05-07T07:08:58;101197.00;;;10.80
64960;BMP180;51487;52.266;10.542;2023-05-07T07:11:24;101185.00;;;10.70
64960;BMP180;51487;52.266;10.542;2023-05-07T07:13:50;101178.00;;;10.70
64960;BMP180;51487;52.266;10.542;2023-05-07T07:16:16;101187.00;;;10.80
64960;BMP180;51487;52.266;10.542;2023-05-07T07:18:42;101191.00;;;10.70
64960;BMP180;51487;52.266;10.542;2023-05-07T07:21:07;101192.00;;;10.80
64960;BMP180;51487;52.266;10.542;2023-05-07T07:23:33;101199.00;;;10.60
64960;BMP180;51487;52.266;10.542;2023-05-07T07:25:58;101203.00;;;10.70
64960;BMP180;51487;52.266;10.542;2023-05-07T07:28:24;101209.00;;;10.60
64960;BMP180;51487;52.266;10.542;2023-05-07T07:30:50;101212.00;;;10.50
64960;BMP180;51487;52.266;10.542;2023-05-07T07:33:15;101203.00;;;10.40
64960;BMP180;51487;52.266;10.542;2023-05-07T07:35:41;101204.00;;;10.70
64960;BMP180;51487;52.266;10.542;2023-05-07T07:38:06;101209.00;;;10.40
64960;BMP180;51487;52.266;10.542;2023-05-07T07:40:34;101210.00;;;10.60
64960;BMP180;51487;52.266;10.542;2023-05-07T07:43:00;101210.00;;;10.60
64960;BMP180;51487;52.266;10.542;2023-05-07T07:45:26;101217.00;;;10.50
64960;BMP180;51487;52.266;10.542;2023-05-07T07:47:52;101214.00;;;10.50
64960;BMP180;51487;52.266;10.542;2023-05-07T07:50:18;101223.00;;;10.50
64960;BMP180;51487;52.266;10.542;2023-05-07T07:52:43;101211.00;;;10.50
64960;BMP180;51487;52.266;10.542;2023-05-07T07:55:09;101213.00;;;10.60
64960;BMP180;51487;52.266;10.542;2023-05-07T07:57:35;101224.00;;;10.70
64960;BMP180;51487;52.266;10.542;2023-05-07T08:00:01;101216.00;;;10.50
64960;BMP180;51487;52.266;10.542;2023-05-07T08:02:26;101214.00;;;10.70
64960;BMP180;51487;52.266;10.542;2023-05-07T08:04:52;101213.00;;;10.70
64960;BMP180;51487;52.266;10.542;2023-05-07T08:07:17;101216.00;;;10.70
64960;BMP180;51487;52.266;10.542;2023-05-07T08:09:45;101210.00;;;10.90
64960;BMP180;51487;52.266;10.542;2023-05-07T08:12:11;101198.00;;;11.00
64960;BMP180;51487;52.266;10.542;2023-05-07T08:14:37;101211.00;;;11.10
64960;BMP180;51487;52.266;10.542;2023-05-07T08:17:03;101210.00;;;11.20
64960;BMP180;51487;52.266;10.542;2023-05-07T08:19:28;101214.00;;;11.30
64960;BMP180;51487;52.266;10.542;2023-05-07T08:21:54;101220.00;;;11.30
64960;BMP180;51487;52.266;10.542;2023-05-07T08:24:20;101213.00;;;11.20
64960;BMP180;51487;52.266;10.542;2023-05-07T08:26:46;101212.00;;;11.30
64960;BMP180;51487;52.266;10.542;2023-05-07T08:29:11;101211.00;;;11.40
64960;BMP180;51487;52.266;10.542;2023-05-07T08:31:37;101215.00;;;11.30
64960;BMP180;51487;52.266;10.542;2023-05-07T08:34:05;101215.00;;;11.30
64960;BMP180;51487;52.266;10.542;2023-05-07T08:36:31;101223.00;;;11.40
64960;BMP180;51487;52.266;10.542;2023-05-07T08:38:57;101220.00;;;11.30
64960;BMP180;51487;52.266;10.542;2023-05-07T08:41:23;101222.00;;;11.30
64960;BMP180;51487;52.266;10.542;2023-05-07T08:43:49;101222.00;;;11.50
64960;BMP180;51487;52.266;10.542;2023-05-07T08:46:20;101230.00;;;11.40
64960;BMP180;51487;52.266;10.542;2023-05-07T08:48:50;101252.00;;;16.10
64960;BMP180;51487;52.266;10.542;2023-05-07T08:51:19;101260.00;;;15.80
64960;BMP180;51487;52.266;10.542;2023-05-07T08:53:47;101247.00;;;16.80
64960;BMP180;51487;52.266;10.542;2023-05-07T08:56:16;101250.00;;;17.90
64960;BMP180;51487;52.266;10.542;2023-05-07T08:58:43;101243.00;;;18.20
64960;BMP180;51487;52.266;10.542;2023-05-07T09:01:13;101249.00;;;18.70
64960;BMP180;51487;52.266;10.542;2023-05-07T09:03:40;101237.00;;;19.00
64960;BMP180;51487;52.266;10.542;2023-05-07T09:06:06;101233.00;;;19.40
64960;BMP180;51487;52.266;10.542;2023-05-07T09:08:33;101238.00;;;19.30
64960;BMP180;51487;52.266;10.542;2023-05-07T09:10:59;101242.00;;;19.50
64960;BMP180;51487;52.266;10.542;2023-05-07T09:13:27;101243.00;;;19.60
64960;BMP180;51487;52.266;10.542;2023-05-07T09:15:53;101238.00;;;20.00
64960;BMP180;51487;52.266;10.542;2023-05-07T09:18:18;101235.00;;;20.00
64960;BMP180;51487;52.266;10.542;2023-05-07T09:20:44;101238.00;;;20.00
64960;BMP180;51487;52.266;10.542;2023-05-07T09:23:10;101248.00;;;19.90
64960;BMP180;51487;52.266;10.542;2023-05-07T09:25:36;101249.00;;;20.00
64960;BMP180;51487;52.266;10.542;2023-05-07T09:28:03;101246.00;;;20.20
64960;BMP180;51487;52.266;10.542;2023-05-07T09:30:33;101244.00;;;19.80
64960;BMP180;51487;52.266;10.542;2023-05-07T09:33:00;101239.00;;;17.10
64960;BMP180;51487;52.266;10.542;2023-05-07T09:35:28;101239.00;;;15.90
64960;BMP180;51487;52.266;10.542;2023-05-07T09:37:55;101247.00;;;14.90
64960;BMP180;51487;52.266;10.542;2023-05-07T09:40:22;101244.00;;;14.10
64960;BMP180;51487;52.266;10.542;2023-05-07T09:42:50;101246.00;;;13.60
64960;BMP180;51487;52.266;10.542;2023-05-07T09:45:21;101245.00;;;13.30
64960;BMP180;51487;52.266;10.542;2023-05-07T09:47:55;101239.00;;;13.20
64960;BMP180;51487;52.266;10.542;2023-05-07T09:50:46;101232.00;;;13.20
64960;BMP180;51487;52.266;10.542;2023-05-07T09:53:15;101245.00;;;13.20
64960;BMP180;51487;52.266;10.542;2023-05-07T09:55:43;101240.00;;;13.40
64960;BMP180;51487;52.266;10.542;2023-05-07T09:58:09;101240.00;;;13.20
64960;BMP180;51487;52.266;10.542;2023-05-07T10:00:38;101242.00;;;13.40
64960;BMP180;51487;52.266;10.542;2023-05-07T10:03:05;101244.00;;;13.10
64960;BMP180;51487;52.266;10.542;2023-05-07T10:05:32;101248.00;;;13.50
64960;BMP180;51487;52.266;10.542;2023-05-07T10:07:58;101235.00;;;13.50
64960;BMP180;51487;52.266;10.542;2023-05-07T10:10:26;101237.00;;;13.40
64960;BMP180;51487;52.266;10.542;2023-05-07T10:12:54;101235.00;;;13.80
64960;BMP180;51487;52.266;10.542;2023-05-07T10:15:20;101234.00;;;13.90
64960;BMP180;51487;52.266;10.542;2023-05-07T10:17:47;101240.00;;;13.80
64960;BMP180;51487;52.266;10.542;2023-05-07T10:20:13;101247.00;;;13.80
64960;BMP180;51487;52.266;10.542;2023-05-07T10:22:41;101245.00;;;13.60
64960;BMP180;51487;52.266;10.542;2023-05-07T10:25:17;101251.00;;;13.60
64960;BMP180;51487;52.266;10.542;2023-05-07T10:27:47;101257.00;;;13.20
64960;BMP180;51487;52.266;10.542;2023-05-07T10:30:24;101267.00;;;12.80
64960;BMP180;51487;52.266;10.542;2023-05-07T10:33:03;101264.00;;;12.80
64960;BMP180;51487;52.266;10.542;2023-05-07T10:35:37;101257.00;;;12.80
64960;BMP180;51487;52.266;10.542;2023-05-07T10:38:06;101258.00;;;12.70
64960;BMP180;51487;52.266;10.542;2023-05-07T10:40:32;101270.00;;;12.80
64960;BMP180;51487;52.266;10.542;2023-05-07T10:43:00;101272.00;;;12.80
64960;BMP180;51487;52.266;10.542;2023-05-07T10:45:28;101274.00;;;12.60
64960;BMP180;51487;52.266;10.542;2023-05-07T10:48:16;101278.00;;;12.60
64960;BMP180;51487;52.266;10.542;2023-05-07T10:50:43;101266.00;;;12.80
64960;BMP180;51487;52.266;10.542;2023-05-07T10:55:43;101269.00;;;12.70
64960;BMP180;51487;52.266;10.542;2023-05-07T11:00:48;101265.00;;;13.00
64960;BMP180;51487;52.266;10.542;2023-05-07T11:03:14;101267.00;;;13.00
64960;BMP180;51487;52.266;10.542;2023-05-07T11:05:41;101262.00;;;12.90
64960;BMP180;51487;52.266;10.542;2023-05-07T11:08:08;101271.00;;;12.90
64960;BMP180;51487;52.266;10.542;2023-05-07T11:10:54;101268.00;;;13.00
64960;BMP180;51487;52.266;10.542;2023-05-07T11:13:41;101264.00;;;13.20
64960;BMP180;51487;52.266;10.542;2023-05-07T11:16:24;101249.00;;;13.40
64960;BMP180;51487;52.266;10.542;2023-05-07T11:18:54;101254.00;;;13.60
64960;BMP180;51487;52.266;10.542;2023-05-07T11:24:10;101263.00;;;13.70
64960;BMP180;51487;52.266;10.542;2023-05-07T11:29:12;101263.00;;;13.70
64960;BMP180;51487;52.266;10.542;2023-05-07T11:31:39;101270.00;;;13.70
64960;BMP180;51487;52.266;10.542;2023-05-07T11:34:05;101263.00;;;13.50
64960;BMP180;51487;52.266;10.542;2023-05-07T11:36:32;101269.00;;;13.70
64960;BMP180;51487;52.266;10.542;2023-05-07T11:38:58;101258.00;;;13.60
64960;BMP180;51487;52.266;10.542;2023-05-07T11:41:36;101271.00;;;13.80
64960;BMP180;51487;52.266;10.542;2023-05-07T11:44:02;101272.00;;;13.70
64960;BMP180;51487;52.266;10.542;2023-05-07T11:46:28;101273.00;;;13.70
64960;BMP180;51487;52.266;10.542;2023-05-07T11:48:55;101266.00;;;13.40
64960;BMP180;51487;52.266;10.542;2023-05-07T11:51:23;101273.00;;;13.30
64960;BMP180;51487;52.266;10.542;2023-05-07T11:53:51;101273.00;;;13.20
64960;BMP180;51487;52.266;10.542;2023-05-07T11:56:18;101270.00;;;13.00
64960;BMP180;51487;52.266;10.542;2023-05-07T11:58:45;101277.00;;;13.10
64960;BMP180;51487;52.266;10.542;2023-05-07T12:01:13;101276.00;;;13.00
64960;BMP180;51487;52.266;10.542;2023-05-07T12:03:42;101277.00;;;13.20
64960;BMP180;51487;52.266;10.542;2023-05-07T12:06:09;101282.00;;;13.10
64960;BMP180;51487;52.266;10.542;2023-05-07T12:08:37;101283.00;;;13.20
64960;BMP180;51487;52.266;10.542;2023-05-07T12:11:03;101280.00;;;13.40
64960;BMP180;51487;52.266;10.542;2023-05-07T12:13:32;101281.00;;;13.30
64960;BMP180;51487;52.266;10.542;2023-05-07T12:15:58;101281.00;;;13.30
64960;BMP180;51487;52.266;10.542;2023-05-07T12:18:24;101283.00;;;13.20
64960;BMP180;51487;52.266;10.542;2023-05-07T12:20:50;101288.00;;;13.20
64960;BMP180;51487;52.266;10.542;2023-05-07T12:23:16;101284.00;;;13.30
64960;BMP180;51487;52.266;10.542;2023-05-07T12:25:43;101288.00;;;13.10
64960;BMP180;51487;52.266;10.542;2023-05-07T12:28:13;101288.00;;;12.90
64960;BMP180;51487;52.266;10.542;2023-05-07T12:30:42;101288.00;;;13.00
64960;BMP180;51487;52.266;10.542;2023-05-07T12:33:09;101286.00;;;12.90
64960;BMP180;51487;52.266;10.542;2023-05-07T12:35:42;101288.00;;;13.10
64960;BMP180;51487;52.266;10.542;2023-05-07T12:38:13;101287.00;;;13.20
64960;BMP180;51487;52.266;10.542;2023-05-07T12:40:43;101297.00;;;13.20
64960;BMP180;51487;52.266;10.542;2023-05-07T12:43:18;101295.00;;;13.30
64960;BMP180;51487;52.266;10.542;2023-05-07T12:45:46;101295.00;;;13.10
64960;BMP180;51487;52.266;10.542;2023-05-07T12:48:14;101298.00;;;13.10
64960;BMP180;51487;52.266;10.542;2023-05-07T12:50:39;101300.00;;;13.10
64960;BMP180;51487;52.266;10.542;2023-05-07T12:53:07;101289.00;;;13.30
64960;BMP180;51487;52.266;10.542;2023-05-07T12:55:44;101287.00;;;13.30
64960;BMP180;51487;52.266;10.542;2023-05-07T12:58:18;101282.00;;;13.40
64960;BMP180;51487;52.266;10.542;2023-05-07T13:00:56;101289.00;;;13.50
64960;BMP180;51487;52.266;10.542;2023-05-07T13:03:30;101281.00;;;13.50
64960;BMP180;51487;52.266;10.542;2023-05-07T13:05:59;101288.00;;;13.40
64960;BMP180;51487;52.266;10.542;2023-05-07T13:08:36;101283.00;;;13.20
64960;BMP180;51487;52.266;10.542;2023-05-07T13:11:07;101290.00;;;13.50
64960;BMP180;51487;52.266;10.542;2023-05-07T13:13:35;101288.00;;;13.50
64960;BMP180;51487;52.266;10.542;2023-05-07T13:16:03;101283.00;;;13.70
64960;BMP180;51487;52.266;10.542;2023-05-07T13:18:30;101272.00;;;13.90
64960;BMP180;51487;52.266;10.542;2023-05-07T13:20:56;101270.00;;;13.80
64960;BMP180;51487;52.266;10.542;2023-05-07T13:23:22;101273.00;;;13.80
64960;BMP180;51487;52.266;10.542;2023-05-07T13:25:48;101269.00;;;14.20
64960;BMP180;51487;52.266;10.542;2023-05-07T13:28:14;101269.00;;;14.20
64960;BMP180;51487;52.266;10.542;2023-05-07T13:30:40;101271.00;;;14.00
64960;BMP180;51487;52.266;10.542;2023-05-07T13:33:06;101273.00;;;14.10
64960;BMP180;51487;52.266;10.542;2023-05-07T13:35:32;101262.00;;;14.10
64960;BMP180;51487;52.266;10.542;2023-05-07T13:37:58;101262.00;;;14.20
64960;BMP180;51487;52.266;10.542;2023-05-07T13:40:24;101255.00;;;14.20
64960;BMP180;51487;52.266;10.542;2023-05-07T13:42:50;101257.00;;;14.00
64960;BMP180;51487;52.266;10.542;2023-05-07T13:45:17;101254.00;;;13.90
64960;BMP180;51487;52.266;10.542;2023-05-07T13:47:43;101254.00;;;14.00
64960;BMP180;51487;52.266;10.542;2023-05-07T13:50:11;101251.00;;;14.10
64960;BMP180;51487;52.266;10.542;2023-05-07T13:52:40;101258.00;;;14.20
64960;BMP180;51487;52.266;10.542;2023-05-07T13:55:08;101255.00;;;14.10
64960;BMP180;51487;52.266;10.542;2023-05-07T13:57:35;101250.00;;;13.90